Linden Pride — H3VP — position and weather

sailwx.info

Track history (hours):
 
Tides and Currents Weather Stations Pressure Air Temp Water Temp Dewpoint Dewpoint Depression Visibility Wind Speed Wind Dir Waves Ship Positions

Linden Pride

Last reported at 2017-Apr-16 01:19 UTC. Time now 2017-Apr-30 13:13 UTC.
Position N 01°56' E 102°17'.
Warning: this ship's position is 14 days out of date.

Length 230 m; beam 36.6 m.

Type: Ship. MMSI: 356677000.

Date/timePositionNaut miles runAvg speedWind from/ knotsBaromVisibWave heightAir tempDewpointWater temp
2017-Apr-16 01:19N 01°56' E 102°17'516.7
2017-Apr-16 01:00N 01°54' E 102°21'817.0
2017-Apr-16 00:30N 01°50' E 102°29'1017.1
2017-Apr-15 23:54N 01°46' E 102°39'718.0
2017-Apr-15 23:30N 01°44' E 102°45'4117.8
2017-Apr-15 21:11N 01°19' E 103°19'317.4
2017-Apr-15 21:00N 01°17' E 103°21'816.2
2017-Apr-15 20:30N 01°13' E 103°28'612.8
2017-Apr-15 20:00N 01°12' E 103°34'3 5.5
2017-Apr-15 19:30N 01°12' E 103°37'3 6.1
2017-Apr-15 19:00N 01°11' E 103°40'2 4.6
2017-Apr-15 18:30N 01°10' E 103°42'3 5.0
2017-Apr-15 18:00N 01°09' E 103°44'5 9.5
2017-Apr-15 17:30N 01°11' E 103°48'5 9.7
2017-Apr-15 17:00N 01°13' E 103°53'510.7
2017-Apr-15 16:30N 01°15' E 103°58'510.5
2017-Apr-15 16:00N 01°16' E 104°03'  
2017-Apr-09 19:51N 19°55' E 119°49'817.6
2017-Apr-09 19:24N 20°02' E 119°50'817.2
2017-Apr-09 18:57N 20°10' E 119°51'9516.8
2017-Apr-09 13:15N 21°45' E 120°05'1116.8
2017-Apr-09 12:35N 21°56' E 120°07'1017.4
2017-Apr-09 12:02N 22°05' E 120°10'117.6
2017-Apr-09 12:00N 22°06' E 120°10'1117.5
2017-Apr-09 11:23N 22°16' E 120°10'718.0
2017-Apr-09 11:00N 22°23' E 120°10'917.5
2017-Apr-09 10:30N 22°32' E 120°13'611.4
2017-Apr-09 10:00N 22°33' E 120°18'2 3.3
2017-Apr-09 09:30N 22°35' E 120°18'0 0.4
2017-Apr-09 09:00N 22°35' E 120°18'0 0.0
2017-Apr-09 08:30N 22°35' E 120°18'0 0.0
2017-Apr-09 08:00N 22°35' E 120°18'0 0.0
2017-Apr-09 07:30N 22°35' E 120°18'0 0.0
2017-Apr-09 06:39N 22°35' E 120°18'0 0.0
2017-Apr-09 06:27N 22°35' E 120°18'0 0.0
2017-Apr-09 05:06N 22°35' E 120°18'0 0.0
2017-Apr-09 04:54N 22°35' E 120°18'0 0.0
2017-Apr-09 04:27N 22°35' E 120°18'0 0.0
2017-Apr-09 04:00N 22°35' E 120°18'0 0.0
2017-Apr-09 03:27N 22°35' E 120°18'0 0.0
2017-Apr-09 03:00N 22°35' E 120°18'0 0.0
2017-Apr-09 02:30N 22°35' E 120°18'0 0.0
2017-Apr-09 02:00N 22°35' E 120°18'0 0.0
2017-Apr-09 01:30N 22°35' E 120°18'0 0.0
2017-Apr-09 01:00N 22°35' E 120°18'0 0.0
2017-Apr-09 00:30N 22°35' E 120°18'0 0.0
2017-Apr-08 23:57N 22°35' E 120°18'0 0.0
2017-Apr-08 23:30N 22°35' E 120°18'0 0.0
2017-Apr-08 23:00N 22°35' E 120°18'0 0.5
2017-Apr-08 22:30N 22°35' E 120°18'3 5.1
2017-Apr-08 21:59N 22°33' E 120°20'0 0.1
2017-Apr-08 19:21N 22°33' E 120°20'0 0.0
2017-Apr-08 02:03N 22°33' E 120°20'0 0.2
2017-Apr-08 01:59N 22°33' E 120°20'1 2.5
2017-Apr-08 01:30N 22°33' E 120°19'3 6.9
2017-Apr-08 01:00N 22°32' E 120°16'1 2.3
2017-Apr-08 00:30N 22°31' E 120°15'1 1.0
2017-Apr-08 00:00N 22°32' E 120°15'4 8.4
2017-Apr-07 23:30N 22°30' E 120°10'5 9.3
2017-Apr-07 23:00N 22°29' E 120°06'510.2
2017-Apr-07 22:30N 22°27' E 120°00'911.0
2017-Apr-07 21:42N 22°24' E 119°51'3 1.4
2017-Apr-07 19:42N 22°23' E 119°54'1 1.3
2017-Apr-07 19:18N 22°23' E 119°55'1 1.5
2017-Apr-07 18:54N 22°23' E 119°55'1 1.9
2017-Apr-07 18:29N 22°24' E 119°56'6 8.7
2017-Apr-07 17:49N 22°29' E 119°55'515.5
2017-Apr-07 17:29N 22°35' E 119°54'1015.8
2017-Apr-07 16:50N 22°45' E 119°54'  
Track history (hours):
 
Tides and Currents Weather Stations Pressure Air Temp Water Temp Dewpoint Dewpoint Depression Visibility Wind Speed Wind Dir Waves Ship Positions

Linden Pride

Last reported at 2017-Apr-16 01:19 UTC. Time now 2017-Apr-30 13:13 UTC.
Position N 01°56' E 102°17'.
Warning: this ship's position is 14 days out of date.

Length 230 m; beam 36.6 m.

Type: Ship. MMSI: 356677000.

Date/timePositionNaut miles runAvg speedWind from/ knotsBaromVisibWave heightAir tempDewpointWater temp
2017-Apr-16 01:19N 01°56' E 102°17'516.7
2017-Apr-16 01:00N 01°54' E 102°21'817.0
2017-Apr-16 00:30N 01°50' E 102°29'1017.1
2017-Apr-15 23:54N 01°46' E 102°39'718.0
2017-Apr-15 23:30N 01°44' E 102°45'4117.8
2017-Apr-15 21:11N 01°19' E 103°19'317.4
2017-Apr-15 21:00N 01°17' E 103°21'816.2
2017-Apr-15 20:30N 01°13' E 103°28'612.8
2017-Apr-15 20:00N 01°12' E 103°34'3 5.5
2017-Apr-15 19:30N 01°12' E 103°37'3 6.1
2017-Apr-15 19:00N 01°11' E 103°40'2 4.6
2017-Apr-15 18:30N 01°10' E 103°42'3 5.0
2017-Apr-15 18:00N 01°09' E 103°44'5 9.5
2017-Apr-15 17:30N 01°11' E 103°48'5 9.7
2017-Apr-15 17:00N 01°13' E 103°53'510.7
2017-Apr-15 16:30N 01°15' E 103°58'510.5
2017-Apr-15 16:00N 01°16' E 104°03'  
2017-Apr-09 19:51N 19°55' E 119°49'817.6
2017-Apr-09 19:24N 20°02' E 119°50'817.2
2017-Apr-09 18:57N 20°10' E 119°51'9516.8
2017-Apr-09 13:15N 21°45' E 120°05'1116.8
2017-Apr-09 12:35N 21°56' E 120°07'1017.4
2017-Apr-09 12:02N 22°05' E 120°10'117.6
2017-Apr-09 12:00N 22°06' E 120°10'1117.5
2017-Apr-09 11:23N 22°16' E 120°10'718.0
2017-Apr-09 11:00N 22°23' E 120°10'917.5
2017-Apr-09 10:30N 22°32' E 120°13'611.4
2017-Apr-09 10:00N 22°33' E 120°18'2 3.3
2017-Apr-09 09:30N 22°35' E 120°18'0 0.4
2017-Apr-09 09:00N 22°35' E 120°18'0 0.0
2017-Apr-09 08:30N 22°35' E 120°18'0 0.0
2017-Apr-09 08:00N 22°35' E 120°18'0 0.0
2017-Apr-09 07:30N 22°35' E 120°18'0 0.0
2017-Apr-09 06:39N 22°35' E 120°18'0 0.0
2017-Apr-09 06:27N 22°35' E 120°18'0 0.0
2017-Apr-09 05:06N 22°35' E 120°18'0 0.0
2017-Apr-09 04:54N 22°35' E 120°18'0 0.0
2017-Apr-09 04:27N 22°35' E 120°18'0 0.0
2017-Apr-09 04:00N 22°35' E 120°18'0 0.0
2017-Apr-09 03:27N 22°35' E 120°18'0 0.0
2017-Apr-09 03:00N 22°35' E 120°18'0 0.0
2017-Apr-09 02:30N 22°35' E 120°18'0 0.0
2017-Apr-09 02:00N 22°35' E 120°18'0 0.0
2017-Apr-09 01:30N 22°35' E 120°18'0 0.0
2017-Apr-09 01:00N 22°35' E 120°18'0 0.0
2017-Apr-09 00:30N 22°35' E 120°18'0 0.0
2017-Apr-08 23:57N 22°35' E 120°18'0 0.0
2017-Apr-08 23:30N 22°35' E 120°18'0 0.0
2017-Apr-08 23:00N 22°35' E 120°18'0 0.5
2017-Apr-08 22:30N 22°35' E 120°18'3 5.1
2017-Apr-08 21:59N 22°33' E 120°20'0 0.1
2017-Apr-08 19:21N 22°33' E 120°20'0 0.0
2017-Apr-08 02:03N 22°33' E 120°20'0 0.2
2017-Apr-08 01:59N 22°33' E 120°20'1 2.5
2017-Apr-08 01:30N 22°33' E 120°19'3 6.9
2017-Apr-08 01:00N 22°32' E 120°16'1 2.3
2017-Apr-08 00:30N 22°31' E 120°15'1 1.0
2017-Apr-08 00:00N 22°32' E 120°15'4 8.4
2017-Apr-07 23:30N 22°30' E 120°10'5 9.3
2017-Apr-07 23:00N 22°29' E 120°06'510.2
2017-Apr-07 22:30N 22°27' E 120°00'911.0
2017-Apr-07 21:42N 22°24' E 119°51'3 1.4
2017-Apr-07 19:42N 22°23' E 119°54'1 1.3
2017-Apr-07 19:18N 22°23' E 119°55'1 1.5
2017-Apr-07 18:54N 22°23' E 119°55'1 1.9
2017-Apr-07 18:29N 22°24' E 119°56'6 8.7
2017-Apr-07 17:49N 22°29' E 119°55'515.5
2017-Apr-07 17:29N 22°35' E 119°54'1015.8
2017-Apr-07 16:50N 22°45' E 119°54'  

Dump ship's entire track history